Time,TemperatureF,DewpointF,PressureIn,WindDirection,WindDirectionDegrees,WindSpeedMPH,WindSpeedGustMPH,Humidity,HourlyPrecipIn,Conditions,Clouds,dailyrainin,SoftwareType,DateUTC
2013-05-27 00:07:00,51.7,46.0,30.06,WNW,297,0.0,2.0,80,0.00,,,0.00,weatherlink.com 1.10,2013-05-27 07:07:00,
2013-05-27 00:22:00,51.1,45.0,30.07,WNW,296,0.0,2.0,81,0.00,,,0.00,weatherlink.com 1.10,2013-05-27 07:22:00,
2013-05-27 00:37:00,51.2,46.0,30.07,NW,308,0.0,1.0,81,0.00,,,0.00,weatherlink.com 1.10,2013-05-27 07:37:00,
2013-05-27 00:52:00,51.4,45.0,30.07,NW,308,0.0,0.0,80,0.00,,,0.00,weatherlink.com 1.10,2013-05-27 07:52:00,
2013-05-27 01:07:00,51.4,45.0,30.07,NW,308,0.0,1.0,79,0.00,,,0.00,weatherlink.com 1.10,2013-05-27 08:07:00,
2013-05-27 01:22:00,49.8,45.0,30.07,NW,308,0.0,2.0,82,0.00,,,0.00,weatherlink.com 1.10,2013-05-27 08:22:00,
2013-05-27 01:37:00,49.3,45.0,30.06,NW,308,1.0,2.0,84,0.00,,,0.00,weatherlink.com 1.10,2013-05-27 08:37:00,
2013-05-27 01:52:00,49.3,45.0,30.06,NW,315,1.0,3.0,84,0.00,,,0.00,weatherlink.com 1.10,2013-05-27 08:52:00,
2013-05-27 02:07:00,49.1,45.0,30.06,NW,311,0.0,3.0,84,0.00,,,0.00,weatherlink.com 1.10,2013-05-27 09:07:00,
2013-05-27 02:22:00,48.8,44.0,30.06,NW,309,0.0,2.0,84,0.00,,,0.00,weatherlink.com 1.10,2013-05-27 09:22:00,
2013-05-27 02:38:00,48.5,44.0,30.06,NW,309,0.0,1.0,84,0.00,,,0.00,weatherlink.com 1.10,2013-05-27 09:38:00,
2013-05-27 02:53:00,48.1,44.0,30.05,NW,309,0.0,1.0,85,0.00,,,0.00,weatherlink.com 1.10,2013-05-27 09:53:00,
2013-05-27 03:08:00,47.9,44.0,30.05,NW,309,0.0,1.0,86,0.00,,,0.00,weatherlink.com 1.10,2013-05-27 10:08:00,
2013-05-27 03:23:00,47.8,44.0,30.05,NW,309,0.0,1.0,87,0.00,,,0.00,weatherlink.com 1.10,2013-05-27 10:23:00,
2013-05-27 03:38:00,47.5,44.0,30.05,NW,309,0.0,1.0,87,0.00,,,0.00,weatherlink.com 1.10,2013-05-27 10:38:00,
2013-05-27 03:53:00,47.0,44.0,30.04,NW,309,0.0,0.0,88,0.00,,,0.00,weatherlink.com 1.10,2013-05-27 10:53:00,
2013-05-27 04:08:00,46.7,44.0,30.05,NW,309,0.0,0.0,89,0.00,,,0.00,weatherlink.com 1.10,2013-05-27 11:08:00,
2013-05-27 04:23:00,46.6,44.0,30.04,NW,309,0.0,0.0,90,0.00,,,0.00,weatherlink.com 1.10,2013-05-27 11:23:00,
2013-05-27 04:38:00,46.5,44.0,30.04,NW,309,0.0,0.0,90,0.00,,,0.00,weatherlink.com 1.10,2013-05-27 11:38:00,
2013-05-27 04:53:00,46.5,44.0,30.04,NW,309,0.0,0.0,90,0.00,,,0.00,weatherlink.com 1.10,2013-05-27 11:53:00,
2013-05-27 05:08:00,46.4,44.0,30.04,NW,309,0.0,0.0,91,0.00,,,0.00,weatherlink.com 1.10,2013-05-27 12:08:00,
2013-05-27 05:23:00,46.4,44.0,30.04,NW,309,0.0,0.0,91,0.00,,,0.00,weatherlink.com 1.10,2013-05-27 12:23:00,
2013-05-27 05:38:00,46.4,44.0,30.05,NW,309,0.0,0.0,91,0.00,,,0.00,weatherlink.com 1.10,2013-05-27 12:38:00,
2013-05-27 05:53:00,46.4,44.0,30.05,NW,309,0.0,0.0,91,0.00,,,0.00,weatherlink.com 1.10,2013-05-27 12:53:00,
2013-05-27 06:08:00,46.4,44.0,30.05,NW,309,0.0,0.0,91,0.00,,,0.00,weatherlink.com 1.10,2013-05-27 13:08:00,
2013-05-27 06:23:00,46.6,44.0,30.05,NW,309,0.0,0.0,92,0.00,,,0.00,weatherlink.com 1.10,2013-05-27 13:23:00,
2013-05-27 06:38:00,47.1,45.0,30.05,NW,309,0.0,0.0,92,0.00,,,0.00,weatherlink.com 1.10,2013-05-27 13:38:00,
2013-05-27 06:53:00,47.8,46.0,30.05,NW,309,0.0,0.0,92,0.00,,,0.00,weatherlink.com 1.10,2013-05-27 13:53:00,
2013-05-27 07:08:00,48.4,46.0,30.06,NW,309,0.0,0.0,91,0.00,,,0.00,weatherlink.com 1.10,2013-05-27 14:08:00,
2013-05-27 07:23:00,49.2,47.0,30.06,NW,309,0.0,0.0,90,0.00,,,0.00,weatherlink.com 1.10,2013-05-27 14:23:00,
2013-05-27 07:38:00,50.3,47.0,30.05,NW,309,0.0,0.0,88,0.00,,,0.00,weatherlink.com 1.10,2013-05-27 14:38:00,
2013-05-27 07:53:00,51.4,47.0,30.05,NW,310,0.0,0.0,86,0.00,,,0.00,weatherlink.com 1.10,2013-05-27 14:53:00,
2013-05-27 08:08:00,52.7,48.0,30.05,NW,310,0.0,0.0,85,0.00,,,0.00,weatherlink.com 1.10,2013-05-27 15:08:00,
2013-05-27 08:23:00,54.1,49.0,30.06,NW,310,0.0,0.0,84,0.00,,,0.00,weatherlink.com 1.10,2013-05-27 15:23:00,
2013-05-27 08:38:00,56.7,52.0,30.05,NW,311,0.0,2.0,83,0.00,,,0.00,weatherlink.com 1.10,2013-05-27 15:38:00,
2013-05-27 08:53:00,58.7,52.0,30.06,NW,312,0.0,1.0,79,0.00,,,0.00,weatherlink.com 1.10,2013-05-27 15:53:00,
2013-05-27 09:08:00,59.1,52.0,30.06,NE,55,0.0,1.0,78,0.00,,,0.00,weatherlink.com 1.10,2013-05-27 16:08:00,
2013-05-27 09:23:00,58.9,53.0,30.05,ESE,113,0.0,1.0,80,0.00,,,0.00,weatherlink.com 1.10,2013-05-27 16:23:00,
2013-05-27 09:38:00,59.7,54.0,30.05,ESE,113,0.0,0.0,81,0.00,,,0.00,weatherlink.com 1.10,2013-05-27 16:38:00,
2013-05-27 09:53:00,60.4,54.0,30.04,ESE,113,0.0,0.0,80,0.00,,,0.00,weatherlink.com 1.10,2013-05-27 16:53:00,
2013-05-27 10:08:00,60.7,54.0,30.04,NW,306,4.0,7.0,78,0.00,,,0.00,weatherlink.com 1.10,2013-05-27 17:08:00,
2013-05-27 10:23:00,61.4,54.0,30.04,WNW,293,0.0,5.0,77,0.00,,,0.00,weatherlink.com 1.10,2013-05-27 17:23:00,
2013-05-27 10:38:00,62.6,54.0,30.04,NW,325,1.0,5.0,73,0.00,,,0.00,weatherlink.com 1.10,2013-05-27 17:38:00,
2013-05-27 10:53:00,61.7,54.0,30.05,NW,306,2.0,7.0,75,0.00,,,0.00,weatherlink.com 1.10,2013-05-27 17:53:00,
2013-05-27 11:08:00,61.2,54.0,30.05,NW,318,0.0,6.0,78,0.00,,,0.00,weatherlink.com 1.10,2013-05-27 18:08:00,
2013-05-27 11:23:00,60.8,55.0,30.06,NW,321,0.0,4.0,80,0.00,,,0.00,weatherlink.com 1.10,2013-05-27 18:23:00,
2013-05-27 11:38:00,60.1,55.0,30.06,NW,304,0.0,5.0,82,0.00,,,0.00,weatherlink.com 1.10,2013-05-27 18:38:00,
2013-05-27 11:53:00,59.1,55.0,30.06,WSW,239,2.0,5.0,85,0.00,,,0.00,weatherlink.com 1.10,2013-05-27 18:53:00,
2013-05-27 12:08:00,59.0,56.0,30.07,NW,307,0.0,4.0,88,0.01,,,0.01,weatherlink.com 1.10,2013-05-27 19:08:00,
2013-05-27 12:23:00,59.2,55.0,30.06,NW,319,0.0,5.0,87,0.01,,,0.01,weatherlink.com 1.10,2013-05-27 19:23:00,
2013-05-27 12:38:00,59.5,55.0,30.06,West,271,0.0,5.0,86,0.01,,,0.01,weatherlink.com 1.10,2013-05-27 19:38:00,
2013-05-27 12:53:00,59.5,55.0,30.06,WSW,257,0.0,7.0,85,0.01,,,0.01,weatherlink.com 1.10,2013-05-27 19:53:00,
2013-05-27 13:08:00,59.5,55.0,30.07,WNW,283,2.0,7.0,86,0.00,,,0.01,weatherlink.com 1.10,2013-05-27 20:08:00,
2013-05-27 13:24:00,60.6,56.0,30.07,NW,313,0.0,9.0,85,0.00,,,0.01,weatherlink.com 1.10,2013-05-27 20:24:00,
2013-05-27 13:39:00,60.3,55.0,30.07,WNW,302,4.0,9.0,83,0.00,,,0.01,weatherlink.com 1.10,2013-05-27 20:39:00,
2013-05-27 13:54:00,61.0,56.0,30.06,NNW,332,2.0,7.0,82,0.00,,,0.01,weatherlink.com 1.10,2013-05-27 20:54:00,
2013-05-27 14:09:00,61.1,56.0,30.06,West,259,5.0,8.0,82,0.00,,,0.01,weatherlink.com 1.10,2013-05-27 21:09:00,
2013-05-27 14:24:00,60.9,55.0,30.06,WSW,245,1.0,7.0,82,0.00,,,0.01,weatherlink.com 1.10,2013-05-27 21:24:00,
2013-05-27 14:39:00,60.8,55.0,30.06,WNW,282,1.0,9.0,81,0.00,,,0.01,weatherlink.com 1.10,2013-05-27 21:39:00,
2013-05-27 14:54:00,61.1,55.0,30.05,West,274,2.0,8.0,80,0.00,,,0.01,weatherlink.com 1.10,2013-05-27 21:54:00,
2013-05-27 15:09:00,61.1,55.0,30.06,West,275,0.0,7.0,79,0.00,,,0.01,weatherlink.com 1.10,2013-05-27 22:09:00,
2013-05-27 15:24:00,60.1,54.0,30.06,WNW,302,4.0,8.0,81,0.00,,,0.01,weatherlink.com 1.10,2013-05-27 22:24:00,
2013-05-27 15:39:00,60.4,55.0,30.05,WSW,248,4.0,6.0,81,0.00,,,0.01,weatherlink.com 1.10,2013-05-27 22:39:00,
2013-05-27 15:54:00,60.4,55.0,30.05,WSW,238,2.0,5.0,81,0.00,,,0.01,weatherlink.com 1.10,2013-05-27 22:54:00,
2013-05-27 16:09:00,60.0,54.0,30.05,NW,304,2.0,4.0,81,0.00,,,0.01,weatherlink.com 1.10,2013-05-27 23:09:00,
2013-05-27 16:24:00,59.8,54.0,30.04,West,259,0.0,8.0,80,0.00,,,0.01,weatherlink.com 1.10,2013-05-27 23:24:00,
2013-05-27 16:39:00,59.9,54.0,30.04,SW,226,0.0,5.0,81,0.00,,,0.01,weatherlink.com 1.10,2013-05-27 23:39:00,
2013-05-27 16:54:00,59.9,54.0,30.04,WSW,245,0.0,4.0,81,0.00,,,0.01,weatherlink.com 1.10,2013-05-27 23:54:00,
2013-05-27 17:09:00,59.6,54.0,30.03,NW,308,1.0,5.0,82,0.00,,,0.01,weatherlink.com 1.10,2013-05-28 00:09:00,
2013-05-27 17:24:00,59.7,55.0,30.03,SW,221,0.0,4.0,83,0.00,,,0.01,weatherlink.com 1.10,2013-05-28 00:24:00,
2013-05-27 17:39:00,59.7,55.0,30.02,SW,218,4.0,6.0,83,0.00,,,0.01,weatherlink.com 1.10,2013-05-28 00:39:00,
2013-05-27 17:54:00,59.4,55.0,30.02,WSW,258,1.0,4.0,84,0.00,,,0.01,weatherlink.com 1.10,2013-05-28 00:54:00,
2013-05-27 18:09:00,59.0,54.0,30.01,SW,235,0.0,5.0,84,0.00,,,0.01,weatherlink.com 1.10,2013-05-28 01:09:00,
2013-05-27 18:24:00,58.5,55.0,30.01,SW,232,0.0,3.0,87,0.00,,,0.01,weatherlink.com 1.10,2013-05-28 01:24:00,
2013-05-27 18:39:00,58.0,54.0,30.00,WSW,254,0.0,4.0,87,0.00,,,0.01,weatherlink.com 1.10,2013-05-28 01:39:00,
2013-05-27 18:54:00,57.7,54.0,30.00,SW,221,1.0,4.0,88,0.00,,,0.01,weatherlink.com 1.10,2013-05-28 01:54:00,
2013-05-27 19:09:00,57.4,54.0,30.00,West,280,0.0,3.0,89,0.00,,,0.01,weatherlink.com 1.10,2013-05-28 02:09:00,
2013-05-27 19:24:00,57.1,54.0,30.00,SW,219,3.0,3.0,90,0.00,,,0.01,weatherlink.com 1.10,2013-05-28 02:24:00,
2013-05-27 19:39:00,56.7,54.0,29.99,WSW,251,0.0,3.0,91,0.00,,,0.01,weatherlink.com 1.10,2013-05-28 02:39:00,
2013-05-27 19:54:00,56.4,54.0,29.99,SW,224,0.0,4.0,92,0.01,,,0.02,weatherlink.com 1.10,2013-05-28 02:54:00,
2013-05-27 20:09:00,55.9,54.0,29.98,WSW,246,0.0,3.0,92,0.01,,,0.02,weatherlink.com 1.10,2013-05-28 03:09:00,
2013-05-27 20:24:00,55.6,53.0,29.98,WSW,242,1.0,1.0,92,0.01,,,0.02,weatherlink.com 1.10,2013-05-28 03:24:00,
2013-05-27 20:39:00,55.3,53.0,29.98,WSW,250,0.0,1.0,93,0.02,,,0.03,weatherlink.com 1.10,2013-05-28 03:39:00,
2013-05-27 20:54:00,55.1,53.0,29.98,WSW,244,0.0,2.0,93,0.01,,,0.03,weatherlink.com 1.10,2013-05-28 03:54:00,
2013-05-27 21:09:00,54.9,53.0,29.97,SW,223,0.0,4.0,93,0.02,,,0.04,weatherlink.com 1.10,2013-05-28 04:09:00,
2013-05-27 21:24:00,54.7,53.0,29.98,SW,222,0.0,1.0,94,0.03,,,0.05,weatherlink.com 1.10,2013-05-28 04:24:00,
2013-05-27 21:39:00,54.5,53.0,29.98,SW,222,0.0,1.0,94,0.03,,,0.06,weatherlink.com 1.10,2013-05-28 04:39:00,
2013-05-27 21:54:00,54.5,53.0,29.99,SW,222,0.0,1.0,94,0.04,,,0.07,weatherlink.com 1.10,2013-05-28 04:54:00,
2013-05-27 22:09:00,54.4,53.0,29.99,SW,222,0.0,2.0,94,0.04,,,0.08,weatherlink.com 1.10,2013-05-28 05:09:00,
2013-05-27 22:24:00,54.3,53.0,29.99,WSW,244,0.0,3.0,94,0.04,,,0.09,weatherlink.com 1.10,2013-05-28 05:24:00,
2013-05-27 22:39:00,54.3,53.0,29.98,WSW,244,0.0,1.0,94,0.04,,,0.10,weatherlink.com 1.10,2013-05-28 05:39:00,
2013-05-27 22:54:00,54.3,53.0,29.97,WSW,244,0.0,0.0,94,0.04,,,0.11,weatherlink.com 1.10,2013-05-28 05:54:00,
2013-05-27 23:09:00,54.3,53.0,29.96,WSW,244,0.0,0.0,94,0.03,,,0.11,weatherlink.com 1.10,2013-05-28 06:09:00,
2013-05-27 23:24:00,54.4,53.0,29.96,WSW,244,0.0,1.0,95,0.03,,,0.12,weatherlink.com 1.10,2013-05-28 06:24:00,
2013-05-27 23:39:00,54.4,53.0,29.97,WSW,244,0.0,0.0,95,0.02,,,0.12,weatherlink.com 1.10,2013-05-28 06:39:00,
2013-05-27 23:54:00,54.4,53.0,29.97,WSW,244,0.0,0.0,95,0.02,,,0.13,weatherlink.com 1.10,2013-05-28 06:54:00,